Time;durP1;ratioP1;P1;durP2;ratioP2;P2;SDS_P1;SDS_P2;PMS_P1;PMS_P2;Temp;Humidity;BMP_temperature;BMP_pressure;BME280_temperature;BME280_humidity;BME280_pressure;Samples;Min_cycle;Max_cycle;Signal;HPM_P1;HPM_P2
2022/11/26 00:00:13;;;;;;;6.33;4.87;;;;;;;;;;5067828;28;20205;-28
2022/11/26 00:02:40;;;;;;;4.73;4.23;;;;;;;;;;5069734;28;20200;-25
2022/11/26 00:05:10;;;;;;;6.00;4.17;;;;;;;;;;5077941;28;20239;-26
2022/11/26 00:07:37;;;;;;;5.13;4.23;;;;;;;;;;5079986;28;20201;-28
2022/11/26 00:10:05;;;;;;;5.30;4.30;;;;;;;;;;5068270;28;20212;-26
2022/11/26 00:12:34;;;;;;;6.70;4.00;;;;;;;;;;5066745;28;20205;-29
2022/11/26 00:15:02;;;;;;;6.87;4.30;;;;;;;;;;5073123;28;20197;-29
2022/11/26 00:17:30;;;;;;;4.60;3.97;;;;;;;;;;5074388;28;20291;-29
2022/11/26 00:19:58;;;;;;;4.53;4.03;;;;;;;;;;5081736;28;20200;-26
2022/11/26 00:22:26;;;;;;;9.23;4.50;;;;;;;;;;5080883;28;20207;-28
2022/11/26 00:24:53;;;;;;;5.10;4.00;;;;;;;;;;5073823;28;20205;-28
2022/11/26 00:27:21;;;;;;;7.50;4.83;;;;;;;;;;5072160;28;20217;-28
2022/11/26 00:29:48;;;;;;;6.73;3.97;;;;;;;;;;5071041;28;20228;-28
2022/11/26 00:32:16;;;;;;;4.50;3.80;;;;;;;;;;5079220;28;20220;-27
2022/11/26 00:34:45;;;;;;;5.17;3.87;;;;;;;;;;5074284;28;20212;-27
2022/11/26 00:37:17;;;;;;;4.83;3.83;;;;;;;;;;5086152;28;20205;-29
2022/11/26 00:39:45;;;;;;;4.50;4.03;;;;;;;;;;5067271;28;20471;-27
2022/11/26 00:42:12;;;;;;;6.37;4.53;;;;;;;;;;5070344;28;20248;-29
2022/11/26 00:44:39;;;;;;;6.27;4.03;;;;;;;;;;5070205;28;20205;-26
2022/11/26 00:47:06;;;;;;;6.40;4.10;;;;;;;;;;5063109;28;20320;-27
2022/11/26 00:49:33;;;;;;;4.60;3.77;;;;;;;;;;5072422;28;20272;-26
2022/11/26 00:52:02;;;;;;;5.30;3.97;;;;;;;;;;5083070;28;20261;-28
2022/11/26 00:54:29;;;;;;;4.53;3.77;;;;;;;;;;5061804;28;20205;-25
2022/11/26 00:56:56;;;;;;;4.93;4.00;;;;;;;;;;5075726;28;20288;-29
2022/11/26 00:59:23;;;;;;;4.47;3.80;;;;;;;;;;5069836;28;20201;-29
2022/11/26 01:01:51;;;;;;;6.80;4.10;;;;;;;;;;5070991;28;20221;-26
2022/11/26 01:04:18;;;;;;;5.83;4.17;;;;;;;;;;5077978;28;20292;-29
2022/11/26 01:06:46;;;;;;;5.70;4.50;;;;;;;;;;5072101;28;20225;-26
2022/11/26 01:09:17;;;;;;;5.07;4.00;;;;;;;;;;5052712;28;20208;-29
2022/11/26 01:11:44;;;;;;;5.60;4.03;;;;;;;;;;5070865;28;20253;-25
2022/11/26 01:14:14;;;;;;;3.50;3.20;;;;;;;;;;5069807;28;20215;-27
2022/11/26 01:16:41;;;;;;;5.90;3.87;;;;;;;;;;5071715;28;20197;-27
2022/11/26 01:19:11;;;;;;;8.50;4.37;;;;;;;;;;5070769;28;20209;-28
2022/11/26 01:21:38;;;;;;;7.03;4.53;;;;;;;;;;5072689;28;20225;-29
2022/11/26 01:24:05;;;;;;;6.47;4.67;;;;;;;;;;5074422;28;20216;-23
2022/11/26 01:26:35;;;;;;;4.47;3.90;;;;;;;;;;5079936;28;20225;-29
2022/11/26 01:29:02;;;;;;;6.43;4.20;;;;;;;;;;5086111;28;20249;-32
2022/11/26 01:31:30;;;;;;;7.90;5.00;;;;;;;;;;5060674;28;20235;-24
2022/11/26 01:33:57;;;;;;;6.63;4.53;;;;;;;;;;5069509;28;20205;-24
2022/11/26 01:36:27;;;;;;;6.63;4.40;;;;;;;;;;5071265;28;20260;-28
2022/11/26 01:38:55;;;;;;;8.03;4.50;;;;;;;;;;5071350;28;20429;-29
2022/11/26 01:41:28;;;;;;;5.63;4.27;;;;;;;;;;5062943;28;20243;-26
2022/11/26 01:43:57;;;;;;;6.33;4.50;;;;;;;;;;5064734;28;20292;-29
2022/11/26 01:46:25;;;;;;;6.67;5.00;;;;;;;;;;5069152;28;20235;-28
2022/11/26 01:48:53;;;;;;;5.60;4.57;;;;;;;;;;5070566;28;20227;-30
2022/11/26 01:51:24;;;;;;;5.40;4.20;;;;;;;;;;5080033;28;20228;-30
2022/11/26 01:53:53;;;;;;;6.07;3.63;;;;;;;;;;5077455;28;20209;-24
2022/11/26 01:56:28;;;;;;;6.97;4.37;;;;;;;;;;5068851;28;20201;-28
2022/11/26 01:58:59;;;;;;;8.10;4.53;;;;;;;;;;5073684;28;20205;-26
2022/11/26 02:01:27;;;;;;;5.87;4.00;;;;;;;;;;5059386;28;20309;-30
2022/11/26 02:03:58;;;;;;;8.60;4.77;;;;;;;;;;5072738;28;20284;-24
2022/11/26 02:06:27;;;;;;;8.70;4.27;;;;;;;;;;5076032;28;20230;-24
2022/11/26 02:08:54;;;;;;;8.47;4.37;;;;;;;;;;5069012;28;20231;-28
2022/11/26 02:11:23;;;;;;;8.40;4.20;;;;;;;;;;5071800;28;20328;-25
2022/11/26 02:13:51;;;;;;;7.53;4.13;;;;;;;;;;5072611;28;20297;-29
2022/11/26 02:16:24;;;;;;;5.47;3.60;;;;;;;;;;5064659;28;20288;-28
2022/11/26 02:18:55;;;;;;;5.37;3.80;;;;;;;;;;5073894;28;20216;-28
2022/11/26 02:21:25;;;;;;;8.93;4.00;;;;;;;;;;5075558;28;20292;-31
2022/11/26 02:24:13;;;;;;;6.33;4.23;;;;;;;;;;5067205;28;20232;-26
2022/11/26 02:26:55;;;;;;;5.43;4.17;;;;;;;;;;5075672;28;20241;-29
2022/11/26 02:29:26;;;;;;;4.90;3.90;;;;;;;;;;5071072;28;20213;-29
2022/11/26 02:31:56;;;;;;;6.53;4.13;;;;;;;;;;5075426;28;20316;-29
2022/11/26 02:34:27;;;;;;;7.10;4.77;;;;;;;;;;5075493;28;20205;-27
2022/11/26 02:36:55;;;;;;;6.80;4.23;;;;;;;;;;5075977;28;20273;-29
2022/11/26 02:39:24;;;;;;;4.90;3.70;;;;;;;;;;5068381;28;20213;-25
2022/11/26 02:41:52;;;;;;;6.63;4.10;;;;;;;;;;5073337;28;20237;-24
2022/11/26 02:44:21;;;;;;;5.93;3.97;;;;;;;;;;5071965;28;20208;-31
2022/11/26 02:46:49;;;;;;;9.27;4.97;;;;;;;;;;5067809;28;20229;-27
2022/11/26 02:49:20;;;;;;;9.27;5.17;;;;;;;;;;5074857;28;20209;-27
2022/11/26 02:51:48;;;;;;;5.97;4.53;;;;;;;;;;5094520;28;20261;-27
2022/11/26 02:54:16;;;;;;;6.87;4.80;;;;;;;;;;5073961;28;20205;-28
2022/11/26 02:56:43;;;;;;;5.57;4.43;;;;;;;;;;5070546;28;20212;-28
2022/11/26 02:59:11;;;;;;;5.27;4.30;;;;;;;;;;5071095;28;20206;-29
2022/11/26 03:01:40;;;;;;;6.73;4.13;;;;;;;;;;5065929;28;20226;-30
2022/11/26 03:04:09;;;;;;;6.57;4.10;;;;;;;;;;5074528;28;20207;-29
2022/11/26 03:06:39;;;;;;;7.47;4.23;;;;;;;;;;5074796;28;20251;-28
2022/11/26 03:09:07;;;;;;;6.60;4.07;;;;;;;;;;5071348;28;20209;-25
2022/11/26 03:11:34;;;;;;;10.07;5.00;;;;;;;;;;5072163;28;20240;-27
2022/11/26 03:14:02;;;;;;;8.20;5.17;;;;;;;;;;5071842;28;20205;-26
2022/11/26 03:16:29;;;;;;;7.20;4.33;;;;;;;;;;5070361;28;20205;-31
2022/11/26 03:18:56;;;;;;;7.50;4.13;;;;;;;;;;5073940;28;20251;-23
2022/11/26 03:21:23;;;;;;;6.37;4.60;;;;;;;;;;5074766;28;20226;-25
2022/11/26 03:23:52;;;;;;;5.20;4.17;;;;;;;;;;5069690;28;20201;-31
2022/11/26 03:26:19;;;;;;;4.83;3.90;;;;;;;;;;5073087;28;20221;-26
2022/11/26 03:28:46;;;;;;;6.20;3.90;;;;;;;;;;5072681;28;20288;-30
2022/11/26 03:31:13;;;;;;;5.27;4.50;;;;;;;;;;5061457;28;20225;-29
2022/11/26 03:33:40;;;;;;;6.27;4.77;;;;;;;;;;5069821;28;20200;-30
2022/11/26 03:36:08;;;;;;;7.40;4.17;;;;;;;;;;5072547;28;20197;-25
2022/11/26 03:38:35;;;;;;;5.97;3.90;;;;;;;;;;5071411;28;20201;-27
2022/11/26 03:41:04;;;;;;;7.77;3.80;;;;;;;;;;5065845;28;20260;-29
2022/11/26 03:43:31;;;;;;;7.43;4.00;;;;;;;;;;5074055;28;20201;-28
2022/11/26 03:45:58;;;;;;;5.43;3.83;;;;;;;;;;5063457;28;20233;-27
2022/11/26 03:48:25;;;;;;;5.17;4.10;;;;;;;;;;5067749;28;20201;-32
2022/11/26 03:50:55;;;;;;;5.63;3.73;;;;;;;;;;5072888;28;20231;-30
2022/11/26 03:53:22;;;;;;;7.93;4.53;;;;;;;;;;5065690;28;20202;-30
2022/11/26 03:55:49;;;;;;;6.10;3.90;;;;;;;;;;5072689;28;20209;-27
2022/11/26 03:58:18;;;;;;;6.53;3.83;;;;;;;;;;5073186;28;20205;-28
2022/11/26 04:00:45;;;;;;;7.00;3.77;;;;;;;;;;5066489;28;20231;-28
2022/11/26 04:03:12;;;;;;;5.60;4.10;;;;;;;;;;5073570;28;20212;-25
2022/11/26 04:05:39;;;;;;;4.77;3.83;;;;;;;;;;5073352;28;20506;-27
2022/11/26 04:08:06;;;;;;;5.90;4.07;;;;;;;;;;5074037;28;20221;-30
2022/11/26 04:10:33;;;;;;;6.43;4.00;;;;;;;;;;5065605;28;20232;-25
2022/11/26 04:13:00;;;;;;;7.53;3.90;;;;;;;;;;5067733;28;20204;-28
2022/11/26 04:15:29;;;;;;;6.50;4.17;;;;;;;;;;5064730;28;20211;-29
2022/11/26 04:17:56;;;;;;;5.43;3.77;;;;;;;;;;5068058;28;20204;-24
2022/11/26 04:20:23;;;;;;;5.23;3.87;;;;;;;;;;5071866;28;20221;-27
2022/11/26 04:22:50;;;;;;;4.37;3.60;;;;;;;;;;5073602;28;20291;-31
2022/11/26 04:25:17;;;;;;;5.80;4.10;;;;;;;;;;5062701;28;20216;-29
2022/11/26 04:27:45;;;;;;;5.47;4.37;;;;;;;;;;5065474;28;20298;-28
2022/11/26 04:30:12;;;;;;;8.03;4.37;;;;;;;;;;5068899;28;20213;-31
2022/11/26 04:32:41;;;;;;;5.60;3.60;;;;;;;;;;5072275;28;20227;-28
2022/11/26 04:35:08;;;;;;;4.97;3.53;;;;;;;;;;5078216;28;20200;-28
2022/11/26 04:37:36;;;;;;;5.87;3.90;;;;;;;;;;5093436;28;20204;-28
2022/11/26 04:40:03;;;;;;;16.43;2.87;;;;;;;;;;5072991;28;20205;-30
2022/11/26 04:42:30;;;;;;;25.40;3.53;;;;;;;;;;5294854;22;20742;-28
2022/11/26 04:44:57;;;;;;;8.10;3.37;;;;;;;;;;5024936;28;20253;-27
2022/11/26 04:47:24;;;;;;;3.80;3.20;;;;;;;;;;5027126;28;20282;-24
2022/11/26 04:49:53;;;;;;;6.07;4.13;;;;;;;;;;5032061;28;20199;-25
2022/11/26 04:52:20;;;;;;;6.93;4.03;;;;;;;;;;5033439;28;20209;-25
2022/11/26 04:54:47;;;;;;;11.40;3.87;;;;;;;;;;5027082;28;20210;-27
2022/11/26 04:57:14;;;;;;;5.37;3.57;;;;;;;;;;5026531;28;20209;-24
2022/11/26 04:59:41;;;;;;;7.90;3.70;;;;;;;;;;5025145;28;20207;-26
2022/11/26 05:02:08;;;;;;;7.93;3.50;;;;;;;;;;5023746;28;20226;-26
2022/11/26 05:04:45;;;;;;;5.53;3.63;;;;;;;;;;5030511;28;20563;-27
2022/11/26 05:07:14;;;;;;;6.50;4.03;;;;;;;;;;5025440;28;20207;-26
2022/11/26 05:09:41;;;;;;;6.30;4.00;;;;;;;;;;5029681;28;20214;-24
2022/11/26 05:12:10;;;;;;;4.90;4.00;;;;;;;;;;5031885;28;20222;-25
2022/11/26 05:14:37;;;;;;;5.90;3.77;;;;;;;;;;5025521;28;20210;-25
2022/11/26 05:17:04;;;;;;;4.17;3.27;;;;;;;;;;5021280;28;20287;-27
2022/11/26 05:19:31;;;;;;;4.13;3.30;;;;;;;;;;5032412;28;20198;-26
2022/11/26 05:21:58;;;;;;;5.20;3.30;;;;;;;;;;5032601;28;20222;-24
2022/11/26 05:24:27;;;;;;;5.13;3.43;;;;;;;;;;5020621;28;20211;-27
2022/11/26 05:26:54;;;;;;;4.13;3.03;;;;;;;;;;5030838;28;20215;-26
2022/11/26 05:29:21;;;;;;;4.13;3.37;;;;;;;;;;5028743;28;20329;-28
2022/11/26 05:31:48;;;;;;;5.43;3.90;;;;;;;;;;5024594;28;20722;-27
2022/11/26 05:34:15;;;;;;;4.63;3.23;;;;;;;;;;5029869;28;20273;-25
2022/11/26 05:36:42;;;;;;;4.37;3.20;;;;;;;;;;5030337;28;20205;-26
2022/11/26 05:39:09;;;;;;;4.87;3.43;;;;;;;;;;5025851;28;20206;-27
2022/11/26 05:41:38;;;;;;;5.17;3.67;;;;;;;;;;5026926;28;20235;-27
2022/11/26 05:44:05;;;;;;;4.53;3.70;;;;;;;;;;5029990;28;20268;-26
2022/11/26 05:46:32;;;;;;;3.70;3.30;;;;;;;;;;5022334;28;20218;-28
2022/11/26 05:48:59;;;;;;;4.33;3.40;;;;;;;;;;5031604;28;20213;-25
2022/11/26 05:51:27;;;;;;;5.23;4.00;;;;;;;;;;5032697;28;20226;-26
2022/11/26 05:53:54;;;;;;;4.30;3.77;;;;;;;;;;5030392;28;20206;-23
2022/11/26 05:56:21;;;;;;;5.27;3.50;;;;;;;;;;5022522;28;20768;-26
2022/11/26 05:58:50;;;;;;;4.97;3.47;;;;;;;;;;5031188;28;20564;-25
2022/11/26 06:01:17;;;;;;;4.20;3.60;;;;;;;;;;5022968;28;20227;-27
2022/11/26 06:03:44;;;;;;;5.47;3.53;;;;;;;;;;5031546;28;20577;-25
2022/11/26 06:06:11;;;;;;;5.70;3.63;;;;;;;;;;5032234;28;20369;-25
2022/11/26 06:08:39;;;;;;;4.23;3.50;;;;;;;;;;5023896;28;20458;-26
2022/11/26 06:11:06;;;;;;;6.13;3.27;;;;;;;;;;5030682;28;20313;-24
2022/11/26 06:13:33;;;;;;;4.13;3.47;;;;;;;;;;5030829;28;20206;-24
2022/11/26 06:16:01;;;;;;;4.87;3.90;;;;;;;;;;5023494;28;20206;-27
2022/11/26 06:18:29;;;;;;;6.20;3.57;;;;;;;;;;5027758;28;20198;-25
2022/11/26 06:20:56;;;;;;;5.23;3.57;;;;;;;;;;5032185;28;20313;-23
2022/11/26 06:23:23;;;;;;;5.40;4.03;;;;;;;;;;5032285;28;20210;-26
2022/11/26 06:25:50;;;;;;;6.80;4.50;;;;;;;;;;5014045;28;20218;-25
2022/11/26 06:28:17;;;;;;;3.83;3.43;;;;;;;;;;5026468;28;20223;-27
2022/11/26 06:30:45;;;;;;;5.67;3.70;;;;;;;;;;5022214;28;20540;-25
2022/11/26 06:33:13;;;;;;;6.33;3.97;;;;;;;;;;5024959;28;20214;-27
2022/11/26 06:35:40;;;;;;;6.37;3.60;;;;;;;;;;5031544;28;20206;-27
2022/11/26 06:38:07;;;;;;;4.17;3.43;;;;;;;;;;5030020;28;20531;-26
2022/11/26 06:40:34;;;;;;;6.27;3.67;;;;;;;;;;5018216;28;20223;-25
2022/11/26 06:43:02;;;;;;;4.93;3.47;;;;;;;;;;5028345;28;20218;-26
2022/11/26 06:45:29;;;;;;;3.93;3.23;;;;;;;;;;5018289;28;20211;-27
2022/11/26 06:47:56;;;;;;;6.77;3.97;;;;;;;;;;5026958;28;20234;-26
2022/11/26 06:50:24;;;;;;;4.13;3.67;;;;;;;;;;5033690;28;20222;-25
2022/11/26 06:52:52;;;;;;;6.30;3.50;;;;;;;;;;5031574;28;20210;-27
2022/11/26 06:55:19;;;;;;;5.80;3.70;;;;;;;;;;5027716;28;20207;-27
2022/11/26 06:57:49;;;;;;;5.53;4.07;;;;;;;;;;5032872;28;20289;-26
2022/11/26 07:00:17;;;;;;;6.53;4.03;;;;;;;;;;5024230;28;20231;-27
2022/11/26 07:02:44;;;;;;;4.00;3.40;;;;;;;;;;5026807;28;20574;-25
2022/11/26 07:05:11;;;;;;;8.20;4.83;;;;;;;;;;5035247;28;20317;-30
2022/11/26 07:07:40;;;;;;;4.53;4.13;;;;;;;;;;5035060;28;20228;-25
2022/11/26 07:10:08;;;;;;;6.53;4.27;;;;;;;;;;5030756;28;20207;-25
2022/11/26 07:12:35;;;;;;;4.10;3.70;;;;;;;;;;5032685;28;20413;-23
2022/11/26 07:15:02;;;;;;;5.10;4.03;;;;;;;;;;5028971;28;20214;-26
2022/11/26 07:17:29;;;;;;;7.10;3.67;;;;;;;;;;5033859;28;20234;-26
2022/11/26 07:19:56;;;;;;;6.03;3.40;;;;;;;;;;5035570;28;20289;-27
2022/11/26 07:22:23;;;;;;;5.40;4.37;;;;;;;;;;5031367;28;20210;-27
2022/11/26 07:24:52;;;;;;;4.53;3.53;;;;;;;;;;5035316;28;20207;-27
2022/11/26 07:27:19;;;;;;;5.73;3.70;;;;;;;;;;5036152;28;20314;-26
2022/11/26 07:29:46;;;;;;;6.30;3.60;;;;;;;;;;5029012;28;20207;-26
2022/11/26 07:32:13;;;;;;;7.57;3.97;;;;;;;;;;5035018;28;20608;-26
2022/11/26 07:34:40;;;;;;;5.57;3.63;;;;;;;;;;5035114;28;20205;-24
2022/11/26 07:37:07;;;;;;;5.00;3.80;;;;;;;;;;5032453;28;20203;-27
2022/11/26 07:39:34;;;;;;;16.03;4.73;;;;;;;;;;5031287;28;20207;-26
2022/11/26 07:42:03;;;;;;;5.10;3.87;;;;;;;;;;5035372;28;20230;-26
2022/11/26 07:44:30;;;;;;;6.07;3.80;;;;;;;;;;5033021;28;20205;-27
2022/11/26 07:46:57;;;;;;;5.07;3.97;;;;;;;;;;5029343;28;20213;-26
2022/11/26 07:49:24;;;;;;;4.93;3.57;;;;;;;;;;5034952;28;20210;-26
2022/11/26 07:51:51;;;;;;;5.50;3.77;;;;;;;;;;5035486;28;20482;-26
2022/11/26 07:54:19;;;;;;;5.17;3.57;;;;;;;;;;5032182;28;20210;-26
2022/11/26 07:56:46;;;;;;;6.17;3.50;;;;;;;;;;5034480;28;20206;-28
2022/11/26 07:59:14;;;;;;;4.87;4.00;;;;;;;;;;5031120;28;20213;-25
2022/11/26 08:01:42;;;;;;;6.13;4.10;;;;;;;;;;5029918;28;20238;-27
2022/11/26 08:04:09;;;;;;;7.90;4.30;;;;;;;;;;5034546;28;20203;-24
2022/11/26 08:06:37;;;;;;;7.83;4.57;;;;;;;;;;5034196;28;20212;-26
2022/11/26 08:09:04;;;;;;;8.77;4.30;;;;;;;;;;5028301;28;20222;-25
2022/11/26 08:11:32;;;;;;;5.53;4.60;;;;;;;;;;5031860;28;20356;-25
2022/11/26 08:14:00;;;;;;;6.83;3.87;;;;;;;;;;5031657;28;20202;-26
2022/11/26 08:16:29;;;;;;;4.63;3.57;;;;;;;;;;5019879;28;20208;-25
2022/11/26 08:18:57;;;;;;;4.53;3.87;;;;;;;;;;5031050;28;20207;-25
2022/11/26 08:21:24;;;;;;;5.60;3.20;;;;;;;;;;5033567;28;20226;-25
2022/11/26 08:23:52;;;;;;;4.77;3.47;;;;;;;;;;5026264;28;20331;-28
2022/11/26 08:26:19;;;;;;;6.47;3.97;;;;;;;;;;5028423;28;20207;-27
2022/11/26 08:28:47;;;;;;;6.07;3.53;;;;;;;;;;5033419;28;20233;-28
2022/11/26 08:31:15;;;;;;;6.60;3.57;;;;;;;;;;5025812;28;20712;-29
2022/11/26 08:33:44;;;;;;;5.13;3.50;;;;;;;;;;5030904;28;20308;-27
2022/11/26 08:36:11;;;;;;;6.73;3.63;;;;;;;;;;5030814;28;20676;-27
2022/11/26 08:38:39;;;;;;;6.23;3.60;;;;;;;;;;5028453;28;20287;-26
2022/11/26 08:41:07;;;;;;;6.23;3.43;;;;;;;;;;5024150;28;20322;-27
2022/11/26 08:43:35;;;;;;;4.97;3.77;;;;;;;;;;5032855;28;20218;-25
2022/11/26 08:46:02;;;;;;;10.40;4.10;;;;;;;;;;5020511;28;20886;-25
2022/11/26 08:48:30;;;;;;;7.33;3.87;;;;;;;;;;5028871;28;20290;-25
2022/11/26 08:50:59;;;;;;;5.50;3.77;;;;;;;;;;5031742;28;20235;-25
2022/11/26 08:53:28;;;;;;;5.77;3.83;;;;;;;;;;5028974;28;20224;-26
2022/11/26 08:55:59;;;;;;;5.93;3.87;;;;;;;;;;5027663;28;20207;-28
2022/11/26 08:58:27;;;;;;;9.67;3.93;;;;;;;;;;5032292;28;20233;-25
2022/11/26 09:00:55;;;;;;;4.77;4.13;;;;;;;;;;5017345;28;20226;-25
2022/11/26 09:03:22;;;;;;;6.43;4.43;;;;;;;;;;5028703;28;20203;-26
2022/11/26 09:05:49;;;;;;;4.13;3.73;;;;;;;;;;5032267;28;20207;-27
2022/11/26 09:08:18;;;;;;;6.60;3.93;;;;;;;;;;5032847;28;20325;-26
2022/11/26 09:10:53;;;;;;;7.07;4.40;;;;;;;;;;5023558;28;20272;-24
2022/11/26 09:13:21;;;;;;;8.13;4.53;;;;;;;;;;5032244;28;20210;-24
2022/11/26 09:15:49;;;;;;;8.63;4.70;;;;;;;;;;5027053;28;20420;-26
2022/11/26 09:18:16;;;;;;;5.73;4.07;;;;;;;;;;5032336;28;20722;-28
2022/11/26 09:20:43;;;;;;;6.43;4.53;;;;;;;;;;5033526;28;20222;-27
2022/11/26 09:23:10;;;;;;;5.23;4.10;;;;;;;;;;5024516;28;20293;-26
2022/11/26 09:25:39;;;;;;;8.27;4.37;;;;;;;;;;5028412;28;20202;-29
2022/11/26 09:28:08;;;;;;;6.23;4.00;;;;;;;;;;5029169;28;20222;-26
2022/11/26 09:30:35;;;;;;;5.60;4.13;;;;;;;;;;5025064;28;20226;-26
2022/11/26 09:33:02;;;;;;;5.10;4.23;;;;;;;;;;5031683;28;20210;-28
2022/11/26 09:35:29;;;;;;;6.63;4.33;;;;;;;;;;5030805;28;20245;-27
2022/11/26 09:37:56;;;;;;;8.77;4.70;;;;;;;;;;5024686;28;20199;-26
2022/11/26 09:40:26;;;;;;;7.70;4.30;;;;;;;;;;5026313;28;20229;-24
2022/11/26 09:42:57;;;;;;;6.03;3.87;;;;;;;;;;5031683;28;20309;-26
2022/11/26 09:45:34;;;;;;;7.27;4.37;;;;;;;;;;5023427;28;20203;-24
2022/11/26 09:48:01;;;;;;;8.87;4.17;;;;;;;;;;5026228;28;20218;-24
2022/11/26 09:50:30;;;;;;;7.43;4.30;;;;;;;;;;5030829;28;20226;-25
2022/11/26 09:53:00;;;;;;;6.43;3.17;;;;;;;;;;5025423;28;20294;-25
2022/11/26 09:55:27;;;;;;;7.47;3.47;;;;;;;;;;5030588;28;20218;-26
2022/11/26 09:58:00;;;;;;;6.43;4.13;;;;;;;;;;5031218;28;20203;-25
2022/11/26 10:00:28;;;;;;;6.83;4.70;;;;;;;;;;5015329;28;20321;-27
2022/11/26 10:02:58;;;;;;;6.77;3.73;;;;;;;;;;5031239;28;20290;-25
2022/11/26 10:05:32;;;;;;;8.77;4.20;;;;;;;;;;5030415;28;20207;-28
2022/11/26 10:08:03;;;;;;;6.77;4.23;;;;;;;;;;5032621;28;20237;-27
2022/11/26 10:10:34;;;;;;;10.70;4.70;;;;;;;;;;5022262;28;20230;-26
2022/11/26 10:13:07;;;;;;;8.97;4.97;;;;;;;;;;5027548;28;20202;-27
2022/11/26 10:15:37;;;;;;;7.67;4.90;;;;;;;;;;5026832;28;20210;-25
2022/11/26 10:18:08;;;;;;;8.53;4.00;;;;;;;;;;5030598;28;20203;-26
2022/11/26 10:20:46;;;;;;;6.47;3.37;;;;;;;;;;5035637;28;20229;-25
2022/11/26 10:23:18;;;;;;;6.17;3.50;;;;;;;;;;5033596;28;20294;-27
2022/11/26 10:25:46;;;;;;;6.17;3.13;;;;;;;;;;5020906;28;20202;-25
2022/11/26 10:28:17;;;;;;;6.80;4.10;;;;;;;;;;5028945;28;20226;-25
2022/11/26 10:30:45;;;;;;;8.27;4.30;;;;;;;;;;5024578;28;20317;-27
2022/11/26 10:33:15;;;;;;;8.30;4.03;;;;;;;;;;5030660;28;20564;-24
2022/11/26 10:35:43;;;;;;;4.27;3.47;;;;;;;;;;5034601;28;20237;-27
2022/11/26 10:38:11;;;;;;;6.17;4.00;;;;;;;;;;5032770;28;20202;-28
2022/11/26 10:40:38;;;;;;;5.80;3.80;;;;;;;;;;5017970;28;20223;-27
2022/11/26 10:45:39;;;;;;;5.23;3.10;;;;;;;;;;5024620;28;20218;-25
2022/11/26 10:48:17;;;;;;;8.70;3.70;;;;;;;;;;5027552;28;20223;-26
2022/11/26 10:50:44;;;;;;;7.17;3.80;;;;;;;;;;5033360;28;20226;-27
2022/11/26 10:53:20;;;;;;;6.60;3.30;;;;;;;;;;5027120;28;20214;-26
2022/11/26 10:55:47;;;;;;;12.73;3.63;;;;;;;;;;5032218;28;20210;-30
2022/11/26 10:58:16;;;;;;;4.50;3.10;;;;;;;;;;5035795;28;20266;-26
2022/11/26 11:00:46;;;;;;;4.47;3.33;;;;;;;;;;5016113;28;20325;-27
2022/11/26 11:03:16;;;;;;;4.57;3.63;;;;;;;;;;5021461;28;20206;-29
2022/11/26 11:05:44;;;;;;;6.20;3.70;;;;;;;;;;5031093;28;20210;-26
2022/11/26 11:08:13;;;;;;;3.60;3.30;;;;;;;;;;5020049;28;20288;-28
2022/11/26 11:10:52;;;;;;;8.83;3.80;;;;;;;;;;5017309;28;20258;-27
2022/11/26 11:13:19;;;;;;;6.33;3.43;;;;;;;;;;5031983;28;20214;-27
2022/11/26 11:15:48;;;;;;;7.10;2.90;;;;;;;;;;5027598;28;20211;-29
2022/11/26 11:18:18;;;;;;;6.07;3.50;;;;;;;;;;5027167;28;20202;-29
2022/11/26 11:20:52;;;;;;;7.20;3.60;;;;;;;;;;5033059;28;20226;-29
2022/11/26 11:23:21;;;;;;;6.00;3.20;;;;;;;;;;5016698;28;20211;-30
2022/11/26 11:25:57;;;;;;;4.97;3.40;;;;;;;;;;5029872;28;20261;-30
2022/11/26 11:28:26;;;;;;;13.43;5.33;;;;;;;;;;5032569;28;20219;-27
2022/11/26 11:31:00;;;;;;;9.83;3.77;;;;;;;;;;5017835;28;20227;-28
2022/11/26 11:33:28;;;;;;;7.37;3.33;;;;;;;;;;5024751;28;20207;-33
2022/11/26 11:35:58;;;;;;;7.77;3.07;;;;;;;;;;5028421;28;20203;-29
2022/11/26 11:38:26;;;;;;;7.07;3.37;;;;;;;;;;5028033;28;20270;-29
2022/11/26 11:40:53;;;;;;;10.13;3.37;;;;;;;;;;5024139;28;20246;-29
2022/11/26 11:43:22;;;;;;;9.50;3.60;;;;;;;;;;5033241;28;20212;-30
2022/11/26 11:45:56;;;;;;;4.87;3.40;;;;;;;;;;5020111;28;20207;-30
2022/11/26 11:48:31;;;;;;;7.07;3.50;;;;;;;;;;5031601;28;20233;-28
2022/11/26 11:50:59;;;;;;;9.50;3.67;;;;;;;;;;5031633;28;20257;-27
2022/11/26 11:53:32;;;;;;;4.47;2.70;;;;;;;;;;5020997;28;20207;-30
2022/11/26 11:56:04;;;;;;;6.77;3.87;;;;;;;;;;5026367;28;20199;-26
2022/11/26 11:58:47;;;;;;;3.47;2.97;;;;;;;;;;5026168;28;20201;-27
2022/11/26 12:01:20;;;;;;;5.23;2.87;;;;;;;;;;5024750;28;20230;-32
2022/11/26 12:04:01;;;;;;;8.37;2.73;;;;;;;;;;5029023;28;20217;-27
2022/11/26 12:06:33;;;;;;;5.17;3.10;;;;;;;;;;5030493;28;20209;-27
2022/11/26 12:09:05;;;;;;;5.00;3.20;;;;;;;;;;5020321;28;20322;-26
2022/11/26 12:11:36;;;;;;;5.33;3.00;;;;;;;;;;5021179;28;20233;-27
2022/11/26 12:14:07;;;;;;;9.03;2.90;;;;;;;;;;5030512;28;20202;-28
2022/11/26 12:16:36;;;;;;;6.23;2.87;;;;;;;;;;5017359;28;20211;-28
2022/11/26 12:19:07;;;;;;;6.40;2.93;;;;;;;;;;5025676;28;20213;-30
2022/11/26 12:21:38;;;;;;;3.27;2.60;;;;;;;;;;5028605;28;20235;-31
2022/11/26 12:24:07;;;;;;;10.10;2.90;;;;;;;;;;5024489;28;20213;-30
2022/11/26 12:26:36;;;;;;;7.07;2.40;;;;;;;;;;5026653;28;20207;-27
2022/11/26 12:29:04;;;;;;;5.57;2.10;;;;;;;;;;5027931;28;20229;-25
2022/11/26 12:31:35;;;;;;;6.47;2.43;;;;;;;;;;5021601;28;20230;-25
2022/11/26 12:34:06;;;;;;;6.43;2.53;;;;;;;;;;5031354;28;20209;-29
2022/11/26 12:36:37;;;;;;;6.50;2.57;;;;;;;;;;5030159;28;20206;-31
2022/11/26 12:39:06;;;;;;;6.80;3.43;;;;;;;;;;5020773;28;20199;-27
2022/11/26 12:41:35;;;;;;;6.67;3.20;;;;;;;;;;5030277;28;20314;-29
2022/11/26 12:44:06;;;;;;;6.50;3.13;;;;;;;;;;5027846;28;20224;-24
2022/11/26 12:46:39;;;;;;;6.73;2.90;;;;;;;;;;5021483;28;20215;-28
2022/11/26 12:49:11;;;;;;;6.00;2.90;;;;;;;;;;5022680;28;20233;-27
2022/11/26 12:51:41;;;;;;;7.93;3.23;;;;;;;;;;5026297;28;20229;-28
2022/11/26 12:54:15;;;;;;;7.67;3.60;;;;;;;;;;5014286;28;20218;-27
2022/11/26 12:56:45;;;;;;;5.77;3.87;;;;;;;;;;5027556;28;20198;-28
2022/11/26 12:59:18;;;;;;;6.33;3.43;;;;;;;;;;5026507;28;20203;-33
2022/11/26 13:01:45;;;;;;;6.67;3.60;;;;;;;;;;5017161;28;20290;-28
2022/11/26 13:04:14;;;;;;;5.30;3.10;;;;;;;;;;5030797;28;20216;-28
2022/11/26 13:06:51;;;;;;;5.50;3.00;;;;;;;;;;5029373;28;20206;-27
2022/11/26 13:09:26;;;;;;;3.70;2.70;;;;;;;;;;5019415;28;20309;-27
2022/11/26 13:11:57;;;;;;;6.57;2.93;;;;;;;;;;5028756;28;20244;-31
2022/11/26 13:14:29;;;;;;;6.07;3.07;;;;;;;;;;5024145;28;20293;-29
2022/11/26 13:16:59;;;;;;;6.00;2.53;;;;;;;;;;5016112;28;20229;-30
2022/11/26 13:19:31;;;;;;;6.17;2.87;;;;;;;;;;5029088;28;20202;-27
2022/11/26 13:22:03;;;;;;;10.20;3.03;;;;;;;;;;5026826;28;20250;-29
2022/11/26 13:24:44;;;;;;;3.87;2.47;;;;;;;;;;5027299;28;20207;-31
2022/11/26 13:27:21;;;;;;;3.60;2.67;;;;;;;;;;5033470;28;20206;-28
2022/11/26 13:30:06;;;;;;;4.07;2.30;;;;;;;;;;5024854;28;20228;-29
2022/11/26 13:32:51;;;;;;;8.80;3.00;;;;;;;;;;5012884;28;20210;-30
2022/11/26 13:35:24;;;;;;;6.73;2.83;;;;;;;;;;5023852;28;20198;-27
2022/11/26 13:38:00;;;;;;;4.23;2.30;;;;;;;;;;5030134;28;20264;-30
2022/11/26 13:40:45;;;;;;;5.87;2.30;;;;;;;;;;5020135;28;20229;-30
2022/11/26 13:43:20;;;;;;;6.90;2.60;;;;;;;;;;5020169;28;20206;-31
2022/11/26 13:46:05;;;;;;;3.00;1.80;;;;;;;;;;5023500;28;20206;-26
2022/11/26 13:48:35;;;;;;;7.93;2.30;;;;;;;;;;5034753;28;20206;-29
2022/11/26 13:51:07;;;;;;;5.83;2.47;;;;;;;;;;5033837;28;20238;-26
2022/11/26 13:53:37;;;;;;;5.90;2.00;;;;;;;;;;5026173;28;20217;-29
2022/11/26 13:56:06;;;;;;;5.53;2.13;;;;;;;;;;5032885;28;20210;-29
2022/11/26 13:58:34;;;;;;;7.33;2.27;;;;;;;;;;5033382;28;20566;-29
2022/11/26 14:01:16;;;;;;;6.40;2.07;;;;;;;;;;5026111;28;20230;-29
2022/11/26 14:03:45;;;;;;;8.53;2.30;;;;;;;;;;5029794;28;20234;-27
2022/11/26 14:06:13;;;;;;;3.30;1.90;;;;;;;;;;5033734;28;20214;-30
2022/11/26 14:08:42;;;;;;;6.70;2.53;;;;;;;;;;5030666;28;20214;-28
2022/11/26 14:11:09;;;;;;;3.87;1.90;;;;;;;;;;5032384;28;20244;-30
2022/11/26 14:13:36;;;;;;;6.30;2.30;;;;;;;;;;5033361;28;20278;-28
2022/11/26 14:16:05;;;;;;;5.63;1.90;;;;;;;;;;5027491;28;20203;-31
2022/11/26 14:19:05;;;;;;;5.77;2.13;;;;;;;;;;5032976;28;20205;-29
2022/11/26 14:21:54;;;;;;;6.83;2.10;;;;;;;;;;5013569;28;20290;-29
2022/11/26 14:24:53;;;;;;;3.17;1.53;;;;;;;;;;5021359;28;20206;-30
2022/11/26 14:27:22;;;;;;;2.23;1.90;;;;;;;;;;5027165;28;20213;-29
2022/11/26 14:29:55;;;;;;;1.83;1.63;;;;;;;;;;5026767;28;20223;-26
2022/11/26 14:32:23;;;;;;;7.17;2.03;;;;;;;;;;5020983;28;20207;-28
2022/11/26 14:34:52;;;;;;;4.87;2.23;;;;;;;;;;5032626;28;20210;-29
2022/11/26 14:37:20;;;;;;;4.23;2.20;;;;;;;;;;5029373;28;20234;-29
2022/11/26 14:39:57;;;;;;;4.07;1.80;;;;;;;;;;5025428;28;20274;-27
2022/11/26 14:42:26;;;;;;;5.73;2.40;;;;;;;;;;5033041;28;20209;-32
2022/11/26 14:45:03;;;;;;;7.83;2.20;;;;;;;;;;5024681;28;20279;-25
2022/11/26 14:47:30;;;;;;;4.83;1.93;;;;;;;;;;5027528;28;20276;-28
2022/11/26 14:49:59;;;;;;;4.20;2.20;;;;;;;;;;5032945;28;20219;-25
2022/11/26 14:52:28;;;;;;;4.57;2.10;;;;;;;;;;5032391;28;20206;-28
2022/11/26 14:54:57;;;;;;;4.73;2.63;;;;;;;;;;5024399;28;20209;-30
2022/11/26 14:57:27;;;;;;;4.13;1.93;;;;;;;;;;5028299;28;20207;-31